createdAt,value
2018-06-02T00:03:00.083Z,99638.78
2018-06-02T00:04:35.180Z,99630.02
2018-06-02T00:06:10.324Z,99633.19
2018-06-02T00:07:45.415Z,99632.63
2018-06-02T00:09:20.478Z,99630.39
2018-06-02T00:10:55.595Z,99633.44
2018-06-02T00:12:30.662Z,99632.84
2018-06-02T00:14:07.658Z,99628.03
2018-06-02T00:15:42.743Z,99628.63
2018-06-02T00:17:17.852Z,99632.63
2018-06-02T00:18:52.928Z,99629.11
2018-06-02T00:20:28.770Z,99633.04
2018-06-02T00:22:04.614Z,99632.12
2018-06-02T00:23:40.480Z,99629.44
2018-06-02T00:25:15.553Z,99629.44
2018-06-02T00:26:50.616Z,99634.08
2018-06-02T00:28:25.723Z,99634.52
2018-06-02T00:30:01.066Z,99629.34
2018-06-02T00:31:36.145Z,99630.78
2018-06-02T00:33:11.225Z,99626.45
2018-06-02T00:34:46.313Z,99627.19
2018-06-02T00:36:21.432Z,99622.21
2018-06-02T00:37:56.503Z,99625.84
2018-06-02T00:39:31.584Z,99625.98
2018-06-02T00:41:06.661Z,99625.02
2018-06-02T00:42:41.746Z,99627.16
2018-06-02T00:44:16.812Z,99630.27
2018-06-02T00:45:51.895Z,99632.83
2018-06-02T00:47:26.948Z,99627.70
2018-06-02T00:49:02.011Z,99628.91
2018-06-02T00:55:08.705Z,99633.01
2018-06-02T00:58:56.276Z,99630.83
2018-06-02T01:00:32.486Z,99631.95
2018-06-02T01:02:07.556Z,99631.08
2018-06-02T01:08:06.977Z,99626.03
2018-06-02T01:09:42.060Z,99625.22
2018-06-02T01:11:17.158Z,99622.55
2018-06-02T01:12:52.226Z,99625.92
2018-06-02T01:14:27.308Z,99621.83
2018-06-02T01:16:02.393Z,99620.18
2018-06-02T01:17:37.449Z,99621.41
2018-06-02T01:19:12.537Z,99622.11
2018-06-02T01:20:47.646Z,99618.44
2018-06-02T01:22:23.457Z,99617.88
2018-06-02T01:23:59.299Z,99618.78
2018-06-02T01:25:35.155Z,99617.88
2018-06-02T01:27:10.207Z,99613.07
2018-06-02T01:28:45.262Z,99621.41
2018-06-02T01:30:20.348Z,99621.13
2018-06-02T01:31:55.419Z,99619.72
2018-06-02T01:33:30.493Z,99623.95
2018-06-02T01:35:05.581Z,99621.25
2018-06-02T01:36:40.637Z,99613.50
2018-06-02T01:38:16.476Z,99618.77
2018-06-02T01:39:52.320Z,99611.80
2018-06-02T01:41:27.382Z,99613.94
2018-06-02T01:43:02.450Z,99619.50
2018-06-02T01:44:37.556Z,99616.50
2018-06-02T01:46:12.653Z,99616.50
2018-06-02T01:47:47.743Z,99617.48
2018-06-02T01:49:22.822Z,99618.83
2018-06-02T01:50:57.875Z,99622.12
2018-06-02T01:52:33.745Z,99629.11
2018-06-02T01:54:08.819Z,99632.20
2018-06-02T01:55:43.926Z,99639.84
2018-06-02T01:57:19.761Z,99630.63
2018-06-02T01:58:55.016Z,99626.28
2018-06-02T02:00:30.102Z,99622.23
2018-06-02T02:02:05.165Z,99627.95
2018-06-02T02:03:40.328Z,99637.20
2018-06-02T02:05:15.383Z,99628.73
2018-06-02T02:06:50.445Z,99629.23
2018-06-02T02:08:25.531Z,99625.30
2018-06-02T02:10:00.655Z,99632.60
2018-06-02T02:11:37.998Z,99632.42
2018-06-02T02:13:13.075Z,99628.84
2018-06-02T02:14:48.184Z,99630.60
2018-06-02T02:16:23.232Z,99630.47
2018-06-02T02:17:58.293Z,99631.76
2018-06-02T02:19:33.630Z,99633.26
2018-06-02T02:21:08.725Z,99636.81
2018-06-02T02:22:43.785Z,99631.61
2018-06-02T02:28:43.059Z,99630.47
2018-06-02T02:30:18.149Z,99633.61
2018-06-02T02:31:53.981Z,99631.95
2018-06-02T02:33:29.040Z,99636.02
2018-06-02T02:35:30.408Z,99633.72
2018-06-02T02:37:05.479Z,99627.54
2018-06-02T02:38:40.530Z,99628.94
2018-06-02T02:40:16.383Z,99630.25
2018-06-02T02:41:51.472Z,99631.83
2018-06-02T02:43:26.528Z,99634.44
2018-06-02T02:45:01.593Z,99631.43
2018-06-02T02:46:36.669Z,99634.14
2018-06-02T02:48:11.765Z,99635.28
2018-06-02T02:49:46.841Z,99633.85
2018-06-02T02:51:21.918Z,99634.44
2018-06-02T02:52:57.032Z,99641.73
2018-06-02T02:54:32.095Z,99640.86
2018-06-02T02:56:07.148Z,99641.52
2018-06-02T02:59:51.665Z,99640.39
2018-06-02T03:01:26.732Z,99647.52
2018-06-02T03:03:01.798Z,99648.25
2018-06-02T03:04:37.663Z,99644.30
2018-06-02T03:06:12.757Z,99642.04
2018-06-02T03:07:47.804Z,99641.47
2018-06-02T03:09:22.891Z,99638.89
2018-06-02T03:10:57.973Z,99639.27
2018-06-02T03:12:33.045Z,99640.46
2018-06-02T03:14:08.134Z,99641.38
2018-06-02T03:18:12.648Z,99649.25
2018-06-02T03:19:47.742Z,99651.47
2018-06-02T03:21:22.833Z,99651.53
2018-06-02T03:22:57.882Z,99656.20
2018-06-02T03:24:32.973Z,99657.61
2018-06-02T03:26:08.056Z,99654.29
2018-06-02T03:27:43.113Z,99656.23
2018-06-02T03:29:18.336Z,99668.18
2018-06-02T03:30:54.198Z,99669.33
2018-06-02T03:32:30.031Z,99668.14
2018-06-02T03:34:05.888Z,99667.47
2018-06-02T03:35:41.719Z,99669.38
2018-06-02T03:37:16.796Z,99669.59
2018-06-02T03:38:51.850Z,99669.56
2018-06-02T03:40:26.941Z,99674.70
2018-06-02T03:42:02.006Z,99682.11
2018-06-02T03:43:37.115Z,99671.91
2018-06-02T03:45:12.168Z,99665.98
2018-06-02T03:46:47.248Z,99670.01
2018-06-02T03:48:22.361Z,99675.60
2018-06-02T03:49:58.199Z,99672.09
2018-06-02T03:51:34.094Z,99670.45
2018-06-02T03:53:09.178Z,99677.09
2018-06-02T03:54:44.998Z,99672.87
2018-06-02T03:58:31.851Z,99678.28
2018-06-02T04:00:07.681Z,99681.67
2018-06-02T04:01:43.572Z,99681.48
2018-06-02T04:03:18.684Z,99684.09
2018-06-02T04:04:53.790Z,99681.95
2018-06-02T04:06:28.844Z,99687.98
2018-06-02T04:08:03.908Z,99683.69
2018-06-02T04:09:39.007Z,99687.05
2018-06-02T04:11:14.074Z,99686.96
2018-06-02T04:12:49.172Z,99685.03
2018-06-02T04:14:24.234Z,99690.41
2018-06-02T04:15:59.298Z,99686.86
2018-06-02T04:17:35.176Z,99688.47
2018-06-02T04:25:47.635Z,99688.42
2018-06-02T04:27:22.719Z,99687.36
2018-06-02T04:28:57.774Z,99687.96
2018-06-02T04:30:32.874Z,99680.69
2018-06-02T04:32:08.858Z,99680.37
2018-06-02T04:33:43.956Z,99678.38
2018-06-02T04:35:19.799Z,99678.31
2018-06-02T04:36:55.654Z,99678.56
2018-06-02T04:38:31.462Z,99685.45
2018-06-02T04:40:06.683Z,99689.45
2018-06-02T04:41:41.764Z,99697.01
2018-06-02T04:43:17.596Z,99694.80
2018-06-02T04:44:52.661Z,99693.72
2018-06-02T04:46:40.673Z,99697.15
2018-06-02T04:48:15.779Z,99695.34
2018-06-02T04:49:51.009Z,99699.24
2018-06-02T04:51:26.332Z,99695.83
2018-06-02T04:53:01.400Z,99690.59
2018-06-02T04:54:36.473Z,99698.30
2018-06-02T04:56:11.549Z,99696.44
2018-06-02T04:57:47.426Z,99687.33
2018-06-02T04:59:22.478Z,99681.83
2018-06-02T05:00:57.533Z,99688.25
2018-06-02T05:02:32.609Z,99687.59
2018-06-02T05:04:07.756Z,99687.99
2018-06-02T05:05:42.848Z,99695.52
2018-06-02T05:07:18.688Z,99701.48
2018-06-02T05:08:53.808Z,99705.02
2018-06-02T05:10:28.859Z,99707.59
2018-06-02T05:12:03.925Z,99708.36
2018-06-02T05:13:39.015Z,99707.28
2018-06-02T05:15:14.295Z,99702.67
2018-06-02T05:16:49.326Z,99705.90
2018-06-02T05:18:24.395Z,99706.92
2018-06-02T05:20:00.263Z,99704.17
2018-06-02T05:21:35.327Z,99713.94
2018-06-02T05:23:10.421Z,99706.24
2018-06-02T05:24:45.489Z,99705.77
2018-06-02T05:26:20.550Z,99708.98
2018-06-02T05:27:55.654Z,99708.27
2018-06-02T05:29:30.705Z,99709.63
2018-06-02T05:31:06.529Z,99718.58
2018-06-02T05:32:41.645Z,99716.25
2018-06-02T05:34:18.618Z,99710.38
2018-06-02T05:35:53.727Z,99717.09
2018-06-02T05:37:28.809Z,99718.16
2018-06-02T05:39:03.887Z,99719.61
2018-06-02T05:40:38.949Z,99710.22
2018-06-02T05:42:14.033Z,99716.74
2018-06-02T05:43:49.103Z,99721.11
2018-06-02T05:45:24.649Z,99718.39
2018-06-02T05:46:59.717Z,99724.53
2018-06-02T05:48:34.821Z,99722.93
2018-06-02T05:50:09.954Z,99712.84
2018-06-02T05:51:44.984Z,99715.11
2018-06-02T05:53:47.847Z,99718.84
2018-06-02T05:55:22.924Z,99707.62
2018-06-02T05:56:57.989Z,99710.95
2018-06-02T05:58:33.101Z,99705.94
2018-06-02T06:00:08.316Z,99707.35
2018-06-02T06:01:43.443Z,99707.91
2018-06-02T06:03:18.526Z,99706.45
2018-06-02T06:04:53.755Z,99706.44
2018-06-02T06:06:28.846Z,99703.41
2018-06-02T06:08:03.896Z,99704.08
2018-06-02T06:09:39.585Z,99710.02
2018-06-02T06:11:16.581Z,99709.73
2018-06-02T06:12:51.648Z,99706.16
2018-06-02T06:14:26.743Z,99711.73
2018-06-02T06:16:01.821Z,99709.30
2018-06-02T06:17:36.911Z,99719.64
2018-06-02T06:19:11.955Z,99717.55
2018-06-02T06:20:47.021Z,99722.34
2018-06-02T06:22:22.878Z,99717.83
2018-06-02T06:24:11.008Z,99718.62
2018-06-02T06:25:46.066Z,99717.50
2018-06-02T06:27:21.140Z,99715.25
2018-06-02T06:28:56.226Z,99727.00
2018-06-02T06:30:31.319Z,99724.76
2018-06-02T06:32:06.419Z,99730.09
2018-06-02T06:33:41.465Z,99731.89
2018-06-02T06:35:16.564Z,99723.97
2018-06-02T06:36:51.650Z,99722.36
2018-06-02T06:38:26.708Z,99723.55
2018-06-02T06:40:01.767Z,99722.06
2018-06-02T06:41:36.873Z,99727.29
2018-06-02T06:43:11.945Z,99728.49
2018-06-02T06:44:47.074Z,99729.90
2018-06-02T06:46:22.074Z,99723.55
2018-06-02T06:47:57.211Z,99721.16
2018-06-02T06:49:32.309Z,99722.98
2018-06-02T06:51:07.360Z,99719.39
2018-06-02T06:52:42.421Z,99718.07
2018-06-02T06:54:18.256Z,99724.88
2018-06-02T06:55:54.153Z,99729.97
2018-06-02T06:57:29.304Z,99732.67
2018-06-02T06:59:04.379Z,99724.88
2018-06-02T07:00:40.202Z,99730.53
2018-06-02T07:02:15.293Z,99731.11
2018-06-02T07:03:50.470Z,99724.20
2018-06-02T07:05:25.515Z,99728.72
2018-06-02T07:07:01.376Z,99722.92
2018-06-02T07:08:36.442Z,99725.68
2018-06-02T07:10:11.532Z,99726.01
2018-06-02T07:11:46.645Z,99723.60
2018-06-02T07:13:21.933Z,99731.89
2018-06-02T07:14:57.049Z,99731.01
2018-06-02T07:16:32.233Z,99729.67
2018-06-02T07:18:07.298Z,99731.61
2018-06-02T07:19:42.345Z,99735.67
2018-06-02T07:21:17.607Z,99727.09
2018-06-02T07:22:53.475Z,99728.83
2018-06-02T07:24:28.534Z,99735.31
2018-06-02T07:26:03.593Z,99726.52
2018-06-02T07:27:38.722Z,99738.72
2018-06-02T07:29:13.752Z,99737.83
2018-06-02T07:30:48.818Z,99738.27
2018-06-02T07:32:25.016Z,99738.62
2018-06-02T07:34:00.120Z,99740.89
2018-06-02T07:35:35.937Z,99734.33
2018-06-02T07:37:11.037Z,99726.61
2018-06-02T07:38:46.133Z,99735.49
2018-06-02T07:40:21.202Z,99732.33
2018-06-02T07:41:56.249Z,99736.75
2018-06-02T07:43:31.393Z,99738.91
2018-06-02T07:45:06.521Z,99738.59
2018-06-02T07:46:41.604Z,99743.50
2018-06-02T07:48:16.673Z,99740.98
2018-06-02T07:49:51.840Z,99739.03
2018-06-02T07:51:26.840Z,99743.51
2018-06-02T07:53:02.670Z,99739.98
2018-06-02T07:54:37.733Z,99735.29
2018-06-02T07:56:12.824Z,99731.24
2018-06-02T07:57:48.671Z,99734.41
2018-06-02T07:59:23.760Z,99737.73
2018-06-02T08:00:58.823Z,99736.33
2018-06-02T08:02:34.115Z,99734.91
2018-06-02T08:04:09.188Z,99732.72
2018-06-02T08:05:44.273Z,99735.00
2018-06-02T08:07:19.338Z,99736.06
2018-06-02T08:08:54.400Z,99738.23
2018-06-02T08:10:29.480Z,99734.59
2018-06-02T08:12:04.570Z,99739.38
2018-06-02T08:13:39.631Z,99740.91
2018-06-02T08:15:18.983Z,99739.39
2018-06-02T08:16:54.065Z,99742.55
2018-06-02T08:18:29.133Z,99737.18
2018-06-02T08:20:04.191Z,99738.92
2018-06-02T08:21:39.256Z,99737.30
2018-06-02T08:23:14.492Z,99737.70
2018-06-02T08:27:01.880Z,99740.30
2018-06-02T08:28:37.766Z,99744.27
2018-06-02T08:30:12.822Z,99752.64
2018-06-02T08:31:47.889Z,99751.69
2018-06-02T08:33:23.771Z,99744.09
2018-06-02T08:34:58.814Z,99755.16
2018-06-02T08:36:34.897Z,99756.21
2018-06-02T08:38:09.954Z,99760.17
2018-06-02T08:39:46.792Z,99759.89
2018-06-02T08:41:21.851Z,99757.34
2018-06-02T08:42:57.675Z,99758.64
2018-06-02T08:44:32.892Z,99758.48
2018-06-02T08:46:07.977Z,99752.85
2018-06-02T08:47:43.042Z,99750.94
2018-06-02T08:53:42.479Z,99758.98
2018-06-02T08:55:17.537Z,99757.03
2018-06-02T08:56:53.347Z,99753.84
2018-06-02T08:58:28.409Z,99759.08
2018-06-02T09:00:03.502Z,99754.38
2018-06-02T09:01:38.572Z,99751.53
2018-06-02T09:03:14.439Z,99751.75
2018-06-02T09:04:49.516Z,99754.39
2018-06-02T09:06:24.600Z,99752.59
2018-06-02T09:07:59.661Z,99754.58
2018-06-02T09:09:34.720Z,99753.83
2018-06-02T09:11:09.825Z,99756.23
2018-06-02T09:12:44.893Z,99751.48
2018-06-02T09:14:20.717Z,99761.07
2018-06-02T09:15:56.592Z,99759.27
2018-06-02T09:17:31.692Z,99760.94
2018-06-02T09:19:06.781Z,99759.95
2018-06-02T09:20:46.878Z,99757.52
2018-06-02T09:22:21.950Z,99753.40
2018-06-02T09:23:57.158Z,99764.38
2018-06-02T09:25:32.220Z,99758.70
2018-06-02T09:27:07.301Z,99759.59
2018-06-02T09:28:42.379Z,99756.19
2018-06-02T09:30:17.428Z,99761.75
2018-06-02T09:31:52.517Z,99758.55
2018-06-02T09:33:27.603Z,99749.30
2018-06-02T09:35:02.955Z,99748.86
2018-06-02T09:36:38.014Z,99753.44
2018-06-02T09:38:13.105Z,99752.23
2018-06-02T09:39:48.163Z,99755.66
2018-06-02T09:41:23.266Z,99760.39
2018-06-02T09:42:59.139Z,99757.70
2018-06-02T09:44:34.987Z,99765.05
2018-06-02T09:46:11.105Z,99759.78
2018-06-02T09:47:46.428Z,99760.58
2018-06-02T09:49:21.584Z,99770.30
2018-06-02T09:50:56.653Z,99770.23
2018-06-02T09:52:31.733Z,99764.17
2018-06-02T09:54:07.610Z,99764.25
2018-06-02T09:55:42.738Z,99767.73
2018-06-02T09:57:17.810Z,99765.04
2018-06-02T09:58:52.917Z,99767.10
2018-06-02T10:00:31.807Z,99770.50
2018-06-02T10:02:07.636Z,99781.88
2018-06-02T10:03:42.725Z,99774.83
2018-06-02T10:05:17.840Z,99775.62
2018-06-02T10:06:52.912Z,99772.27
2018-06-02T10:08:27.988Z,99772.45
2018-06-02T10:10:03.070Z,99772.42
2018-06-02T10:11:38.176Z,99775.69
2018-06-02T10:13:13.275Z,99776.98
2018-06-02T10:14:48.373Z,99776.08
2018-06-02T10:16:24.293Z,99776.85
2018-06-02T10:17:59.419Z,99781.73
2018-06-02T10:19:34.523Z,99783.67
2018-06-02T10:21:09.641Z,99782.45
2018-06-02T10:24:57.263Z,99787.45
2018-06-02T10:26:32.356Z,99790.59
2018-06-02T10:28:07.411Z,99786.19
2018-06-02T10:29:42.563Z,99794.17
2018-06-02T10:31:17.574Z,99794.09
2018-06-02T10:32:53.430Z,99795.81
2018-06-02T10:34:28.489Z,99793.25
2018-06-02T10:36:18.326Z,99804.55
2018-06-02T10:37:54.183Z,99804.77
2018-06-02T10:39:29.254Z,99803.86
2018-06-02T10:41:04.338Z,99800.48
2018-06-02T10:42:39.443Z,99798.56
2018-06-02T10:44:15.266Z,99798.38
2018-06-02T10:45:50.469Z,99796.72
2018-06-02T10:47:25.532Z,99795.80
2018-06-02T10:49:00.641Z,99804.98
2018-06-02T10:50:35.713Z,99805.17
2018-06-02T10:52:10.855Z,99801.96
2018-06-02T10:53:45.945Z,99789.19
2018-06-02T10:55:21.009Z,99803.48
2018-06-02T10:56:56.081Z,99805.77
2018-06-02T10:58:31.196Z,99801.95
2018-06-02T11:00:06.267Z,99802.56
2018-06-02T11:01:41.435Z,99803.94
2018-06-02T11:03:16.469Z,99803.44
2018-06-02T11:04:51.528Z,99807.61
2018-06-02T11:06:26.632Z,99810.87
2018-06-02T11:08:01.708Z,99811.23
2018-06-02T11:09:36.789Z,99808.83
2018-06-02T11:11:11.885Z,99809.05
2018-06-02T11:12:46.954Z,99812.95
2018-06-02T11:14:22.052Z,99805.60
2018-06-02T11:15:57.128Z,99813.62
2018-06-02T11:17:32.189Z,99810.97
2018-06-02T11:19:07.277Z,99805.42
2018-06-02T11:20:42.352Z,99807.20
2018-06-02T11:22:17.629Z,99805.88
2018-06-02T11:23:52.692Z,99810.59
2018-06-02T11:25:27.756Z,99815.55
2018-06-02T11:27:03.637Z,99812.28
2018-06-02T11:28:38.703Z,99811.98
2018-06-02T11:30:13.800Z,99805.61
2018-06-02T11:31:48.884Z,99811.13
2018-06-02T11:33:23.959Z,99811.72
2018-06-02T11:34:59.112Z,99812.08
2018-06-02T11:36:34.173Z,99811.15
2018-06-02T11:38:09.268Z,99812.03
2018-06-02T11:39:44.362Z,99809.31
2018-06-02T11:41:19.417Z,99814.34
2018-06-02T11:42:54.487Z,99813.80
2018-06-02T11:44:29.587Z,99812.53
2018-06-02T11:46:04.759Z,99814.00
2018-06-02T11:47:39.804Z,99804.76
2018-06-02T11:49:14.923Z,99812.06
2018-06-02T11:50:50.057Z,99805.61
2018-06-02T11:52:25.124Z,99805.78
2018-06-02T11:54:00.180Z,99800.52
2018-06-02T11:55:35.329Z,99798.00
2018-06-02T11:57:11.152Z,99794.33
2018-06-02T11:58:46.230Z,99806.36
2018-06-02T12:00:21.333Z,99798.75
2018-06-02T12:01:57.184Z,99803.75
2018-06-02T12:03:33.025Z,99792.20
2018-06-02T12:05:09.108Z,99798.77
2018-06-02T12:06:44.343Z,99798.12
2018-06-02T12:08:19.461Z,99803.04
2018-06-02T12:09:54.525Z,99797.78
2018-06-02T12:11:29.633Z,99805.08
2018-06-02T12:13:04.769Z,99799.17
2018-06-02T12:14:39.851Z,99798.13
2018-06-02T12:16:15.727Z,99800.47
2018-06-02T12:17:50.785Z,99795.48
2018-06-02T12:19:25.879Z,99799.20
2018-06-02T12:21:00.944Z,99799.72
2018-06-02T12:22:36.014Z,99803.34
2018-06-02T12:24:11.898Z,99799.98
2018-06-02T12:25:46.971Z,99807.11
2018-06-02T12:27:22.169Z,99801.19
2018-06-02T12:28:57.231Z,99804.28
2018-06-02T12:30:32.324Z,99801.92
2018-06-02T12:32:07.384Z,99796.84
2018-06-02T12:33:42.444Z,99796.94
2018-06-02T12:35:18.457Z,99795.66
2018-06-02T12:36:53.536Z,99796.02
2018-06-02T12:38:28.601Z,99797.53
2018-06-02T12:40:03.712Z,99797.45
2018-06-02T12:41:38.777Z,99791.28
2018-06-02T12:43:13.855Z,99798.57
2018-06-02T12:44:48.942Z,99792.89
2018-06-02T12:46:23.997Z,99793.06
2018-06-02T12:47:59.059Z,99787.83
2018-06-02T12:49:34.113Z,99793.86
2018-06-02T12:51:09.429Z,99788.89
2018-06-02T12:52:44.495Z,99785.67
2018-06-02T12:54:19.639Z,99786.20
2018-06-02T12:55:54.772Z,99787.13
2018-06-02T12:57:30.641Z,99789.63
2018-06-02T12:59:05.715Z,99787.16
2018-06-02T13:00:40.785Z,99785.05
2018-06-02T13:02:16.609Z,99782.78
2018-06-02T13:03:52.102Z,99789.66
2018-06-02T13:05:27.211Z,99784.52
2018-06-02T13:07:03.029Z,99784.00
2018-06-02T13:08:38.147Z,99786.72
2018-06-02T13:10:13.211Z,99777.46
2018-06-02T13:11:48.309Z,99785.66
2018-06-02T13:13:23.377Z,99786.03
2018-06-02T13:14:58.486Z,99785.23
2018-06-02T13:16:34.314Z,99784.52
2018-06-02T13:18:09.416Z,99778.94
2018-06-02T13:19:44.512Z,99777.91
2018-06-02T13:21:19.629Z,99778.08
2018-06-02T13:22:55.472Z,99776.80
2018-06-02T13:24:31.287Z,99782.27
2018-06-02T13:26:06.393Z,99785.73
2018-06-02T13:27:41.520Z,99772.17
2018-06-02T13:29:16.585Z,99775.59
2018-06-02T13:30:51.722Z,99775.39
2018-06-02T13:32:26.790Z,99769.05
2018-06-02T13:34:01.857Z,99766.11
2018-06-02T13:35:36.998Z,99772.03
2018-06-02T13:37:12.054Z,99770.27
2018-06-02T13:38:47.129Z,99771.73
2018-06-02T13:40:22.269Z,99771.46
2018-06-02T13:41:57.349Z,99769.91
2018-06-02T13:43:32.425Z,99765.81
2018-06-02T13:45:07.501Z,99767.94
2018-06-02T13:46:42.603Z,99766.09
2018-06-02T13:48:17.685Z,99767.41
2018-06-02T13:49:52.765Z,99762.84
2018-06-02T13:51:27.910Z,99763.45
2018-06-02T13:53:02.964Z,99756.80
2018-06-02T13:54:38.047Z,99759.86
2018-06-02T13:56:13.894Z,99748.80
2018-06-02T13:57:48.984Z,99747.86
2018-06-02T13:59:24.067Z,99746.10
2018-06-02T14:00:59.147Z,99754.16
2018-06-02T14:02:34.271Z,99752.44
2018-06-02T14:04:09.418Z,99751.03
2018-06-02T14:05:44.496Z,99745.25
2018-06-02T14:07:20.383Z,99747.56
2018-06-02T14:08:55.464Z,99752.47
2018-06-02T14:10:30.536Z,99746.75
2018-06-02T14:12:05.615Z,99745.00
2018-06-02T14:13:41.473Z,99741.52
2018-06-02T14:15:17.320Z,99738.05
2018-06-02T14:16:53.210Z,99736.96
2018-06-02T14:18:28.307Z,99737.02
2018-06-02T14:20:03.374Z,99739.45
2018-06-02T14:21:38.457Z,99735.97
2018-06-02T14:23:13.547Z,99732.62
2018-06-02T14:24:48.626Z,99728.28
2018-06-02T14:26:23.731Z,99722.17
2018-06-02T14:27:58.795Z,99733.44
2018-06-02T14:29:33.895Z,99729.48
2018-06-02T14:31:09.003Z,99725.56
2018-06-02T14:32:44.085Z,99725.75
2018-06-02T14:34:19.189Z,99725.75
2018-06-02T14:35:54.286Z,99729.98
2018-06-02T14:37:29.379Z,99724.78
2018-06-02T14:39:04.454Z,99727.72
2018-06-02T14:40:39.549Z,99723.14
2018-06-02T14:42:14.662Z,99725.52
2018-06-02T14:43:49.745Z,99721.96
2018-06-02T14:45:24.934Z,99724.30
2018-06-02T14:47:00.032Z,99722.36
2018-06-02T14:48:35.126Z,99721.25
2018-06-02T14:50:10.249Z,99718.67
2018-06-02T14:51:45.565Z,99717.48
2018-06-02T14:53:20.612Z,99713.67
2018-06-02T14:54:55.738Z,99707.83
2018-06-02T14:56:30.770Z,99705.66
2018-06-02T14:58:07.391Z,99704.65
2018-06-02T14:59:42.455Z,99709.30
2018-06-02T15:01:17.517Z,99704.33
2018-06-02T15:02:52.588Z,99703.62
2018-06-02T15:04:27.698Z,99704.31
2018-06-02T15:06:02.769Z,99699.84
2018-06-02T15:07:37.843Z,99699.77
2018-06-02T15:09:12.927Z,99713.09
2018-06-02T15:10:47.988Z,99702.05
2018-06-02T15:12:23.091Z,99699.37
2018-06-02T15:13:58.159Z,99699.34
2018-06-02T15:15:33.217Z,99700.22
2018-06-02T15:17:08.284Z,99690.84
2018-06-02T15:18:43.395Z,99689.70
2018-06-02T15:20:18.461Z,99690.34
2018-06-02T15:21:53.537Z,99690.55
2018-06-02T15:23:28.626Z,99692.64
2018-06-02T15:25:04.494Z,99693.20
2018-06-02T15:26:40.305Z,99688.50
2018-06-02T15:28:15.400Z,99689.09
2018-06-02T15:29:50.469Z,99692.50
2018-06-02T15:31:25.563Z,99697.69
2018-06-02T15:35:12.736Z,99688.97
2018-06-02T15:36:48.568Z,99694.05
2018-06-02T15:38:23.649Z,99692.29
2018-06-02T15:39:58.753Z,99692.06
2018-06-02T15:41:33.815Z,99691.26
2018-06-02T15:43:08.894Z,99696.52
2018-06-02T15:44:44.713Z,99695.06
2018-06-02T15:46:19.810Z,99691.31
2018-06-02T15:47:54.874Z,99693.42
2018-06-02T15:49:29.944Z,99693.94
2018-06-02T15:51:05.051Z,99693.83
2018-06-02T15:57:25.245Z,99701.33
2018-06-02T15:59:00.309Z,99697.63
2018-06-02T16:00:35.365Z,99697.59
2018-06-02T16:02:10.424Z,99696.59
2018-06-02T16:03:45.516Z,99691.55
2018-06-02T16:05:20.588Z,99693.73
2018-06-02T16:06:55.660Z,99695.64
2018-06-02T16:10:42.679Z,99702.92
2018-06-02T16:12:20.011Z,99696.06
2018-06-02T16:13:57.271Z,99696.47
2018-06-02T16:15:32.868Z,99690.86
2018-06-02T16:17:09.279Z,99691.34
2018-06-02T16:18:45.617Z,99694.35
2018-06-02T16:20:21.283Z,99688.14
2018-06-02T16:21:56.641Z,99686.95
2018-06-02T16:23:32.201Z,99683.60
2018-06-02T16:25:07.475Z,99686.29
2018-06-02T16:26:42.524Z,99684.07
2018-06-02T16:28:17.615Z,99682.50
2018-06-02T16:29:52.892Z,99682.55
2018-06-02T16:33:47.041Z,99685.25
2018-06-02T16:35:24.210Z,99680.48
2018-06-02T16:36:59.439Z,99680.44
2018-06-02T16:38:35.026Z,99677.74
2018-06-02T16:40:10.965Z,99674.88
2018-06-02T16:41:49.759Z,99673.21
2018-06-02T16:43:24.933Z,99673.13
2018-06-02T16:45:00.127Z,99676.50
2018-06-02T16:46:36.480Z,99674.42
2018-06-02T16:48:12.020Z,99675.05
2018-06-02T16:49:47.775Z,99676.22
2018-06-02T16:51:23.759Z,99675.91
2018-06-02T16:52:59.035Z,99666.79
2018-06-02T16:54:34.589Z,99670.01
2018-06-02T16:56:15.115Z,99666.55
2018-06-02T16:57:50.542Z,99680.66
2018-06-02T16:59:26.057Z,99679.40
2018-06-02T17:01:01.369Z,99682.41
2018-06-02T17:02:37.743Z,99684.56
2018-06-02T17:04:13.255Z,99679.88
2018-06-02T17:05:48.748Z,99686.92
2018-06-02T17:07:26.965Z,99686.36
2018-06-02T17:09:02.802Z,99685.78
2018-06-02T17:10:37.976Z,99687.97
2018-06-02T17:12:13.711Z,99694.72
2018-06-02T17:13:50.743Z,99691.40
2018-06-02T17:15:26.545Z,99691.19
2018-06-02T17:17:02.410Z,99692.81
2018-06-02T17:18:37.506Z,99687.59
2018-06-02T17:20:12.902Z,99690.72
2018-06-02T17:21:48.840Z,99693.91
2018-06-02T17:23:23.953Z,99694.47
2018-06-02T17:24:59.919Z,99690.08
2018-06-02T17:26:35.090Z,99698.95
2018-06-02T17:28:10.200Z,99695.74
2018-06-02T17:29:52.117Z,99694.56
2018-06-02T17:31:27.283Z,99699.24
2018-06-02T17:33:03.616Z,99702.51
2018-06-02T17:34:38.972Z,99700.47
2018-06-02T17:36:15.198Z,99706.67
2018-06-02T17:37:50.468Z,99706.58
2018-06-02T17:39:29.199Z,99700.45
2018-06-02T17:41:04.949Z,99702.85
2018-06-02T17:42:40.472Z,99702.89
2018-06-02T17:44:16.449Z,99702.73
2018-06-02T17:46:02.941Z,99709.29
2018-06-02T17:47:38.373Z,99700.41
2018-06-02T17:49:13.518Z,99705.42
2018-06-02T17:50:48.694Z,99703.78
2018-06-02T17:52:24.007Z,99710.03
2018-06-02T17:53:59.338Z,99707.74
2018-06-02T17:55:36.495Z,99710.08
2018-06-02T17:57:11.904Z,99704.95
2018-06-02T17:58:47.145Z,99708.98
2018-06-02T18:00:22.351Z,99707.67
2018-06-02T18:01:57.962Z,99701.84
2018-06-02T18:03:33.360Z,99708.30
2018-06-02T18:05:08.549Z,99711.25
2018-06-02T18:06:43.868Z,99712.80
2018-06-02T18:08:19.248Z,99710.91
2018-06-02T18:09:55.631Z,99714.09
2018-06-02T18:11:31.463Z,99718.25
2018-06-02T18:13:06.583Z,99716.06
2018-06-02T18:14:42.072Z,99714.14
2018-06-02T18:16:18.053Z,99718.13
2018-06-02T18:17:53.726Z,99714.84
2018-06-02T18:19:30.151Z,99720.45
2018-06-02T18:21:05.536Z,99714.70
2018-06-02T18:22:41.839Z,99720.75
2018-06-02T18:24:17.396Z,99717.17
2018-06-02T18:25:53.410Z,99719.41
2018-06-02T18:27:30.997Z,99721.59
2018-06-02T18:29:08.896Z,99722.07
2018-06-02T18:30:45.309Z,99721.61
2018-06-02T18:32:21.892Z,99721.91
2018-06-02T18:33:57.162Z,99729.91
2018-06-02T18:35:33.316Z,99728.05
2018-06-02T18:37:09.450Z,99727.94
2018-06-02T18:38:45.545Z,99736.69
2018-06-02T18:40:20.673Z,99734.22
2018-06-02T18:41:55.913Z,99734.83
2018-06-02T18:43:31.785Z,99736.48
2018-06-02T18:45:08.660Z,99737.49
2018-06-02T18:46:44.686Z,99738.58
2018-06-02T18:48:19.829Z,99730.66
2018-06-02T18:49:55.579Z,99735.69
2018-06-02T18:51:32.866Z,99737.84
2018-06-02T18:53:07.964Z,99731.83
2018-06-02T18:54:43.413Z,99733.52
2018-06-02T18:56:19.431Z,99731.47
2018-06-02T18:57:54.577Z,99733.36
2018-06-02T18:59:30.695Z,99735.70
2018-06-02T19:01:06.584Z,99736.41
2018-06-02T19:02:45.364Z,99737.55
2018-06-02T19:04:20.587Z,99734.06
2018-06-02T19:05:57.538Z,99728.92
2018-06-02T19:07:33.285Z,99730.40
2018-06-02T19:09:09.431Z,99728.77
2018-06-02T19:10:45.958Z,99730.09
2018-06-02T19:12:21.271Z,99733.98
2018-06-02T19:13:56.854Z,99737.39
2018-06-02T19:15:32.380Z,99741.09
2018-06-02T19:17:08.877Z,99745.80
2018-06-02T19:18:46.062Z,99743.19
2018-06-02T19:20:21.300Z,99748.86
2018-06-02T19:21:57.234Z,99751.02
2018-06-02T19:23:33.354Z,99756.33
2018-06-02T19:25:09.133Z,99748.12
2018-06-02T19:26:45.110Z,99762.79
2018-06-02T19:28:40.641Z,99759.16
2018-06-02T19:30:16.318Z,99763.90
2018-06-02T19:31:51.623Z,99760.70
2018-06-02T19:33:28.458Z,99760.23